Time;durP1;ratioP1;P1;durP2;ratioP2;P2;SDS_P1;SDS_P2;PMS_P1;PMS_P2;Temp;Humidity;BMP_temperature;BMP_pressure;BME280_temperature;BME280_humidity;BME280_pressure;Samples;Min_cycle;Max_cycle;Signal;HPM_P1;HPM_P2
2023/08/18 00:00:53;;;;;;;30.33;20.00;;;16.30;99.90;;;;;;5092530;28;20597;-72
2023/08/18 00:03:24;;;;;;;5.35;3.90;;;16.30;99.90;;;;;;5090049;28;20205;-71
2023/08/18 00:05:54;;;;;;;0.85;0.73;;;16.50;99.90;;;;;;5074979;28;20219;-72
2023/08/18 00:08:25;;;;;;;1.10;0.70;;;16.60;99.90;;;;;;5073583;28;20223;-71
2023/08/18 00:10:59;;;;;;;0.98;0.47;;;16.70;99.90;;;;;;5074710;28;20228;-72
2023/08/18 00:13:29;;;;;;;0.50;0.50;;;16.80;99.90;;;;;;5074339;28;20200;-72
2023/08/18 00:16:00;;;;;;;0.28;0.28;;;16.90;99.90;;;;;;5086911;28;20188;-71
2023/08/18 00:18:31;;;;;;;0.30;0.30;;;16.90;99.90;;;;;;5085703;28;20664;-71
2023/08/18 00:21:02;;;;;;;0.65;0.40;;;17.00;99.90;;;;;;5074263;28;20211;-72
2023/08/18 00:23:33;;;;;;;0.43;0.40;;;16.90;99.90;;;;;;5083352;28;20227;-71
2023/08/18 00:26:08;;;;;;;0.50;0.50;;;16.80;99.90;;;;;;5076022;28;20275;-71
2023/08/18 00:28:39;;;;;;;0.40;0.40;;;16.70;99.90;;;;;;5073146;28;20583;-71
2023/08/18 00:31:10;;;;;;;0.40;0.40;;;16.50;99.90;;;;;;5084991;28;20219;-71
2023/08/18 00:33:41;;;;;;;0.47;0.43;;;16.40;99.90;;;;;;5092417;28;20214;-72
2023/08/18 00:36:11;;;;;;;0.80;0.60;;;16.40;99.90;;;;;;5086479;28;20202;-72
2023/08/18 00:38:42;;;;;;;0.52;0.52;;;16.40;99.90;;;;;;5091562;28;20202;-72
2023/08/18 00:41:15;;;;;;;1.17;0.90;;;16.50;99.90;;;;;;5094475;28;20581;-71
2023/08/18 00:43:46;;;;;;;0.43;0.30;;;16.80;99.90;;;;;;5094243;28;20196;-72
2023/08/18 00:46:17;;;;;;;1.95;0.73;;;17.00;99.90;;;;;;5094247;28;20606;-72
2023/08/18 00:48:48;;;;;;;0.60;0.43;;;17.20;99.90;;;;;;5094164;28;20687;-72
2023/08/18 00:51:19;;;;;;;0.30;0.30;;;17.40;99.90;;;;;;5094156;28;20200;-71
2023/08/18 00:53:50;;;;;;;0.50;0.30;;;17.50;99.90;;;;;;5093928;28;20192;-71
2023/08/18 00:56:24;;;;;;;0.30;0.30;;;17.60;99.90;;;;;;5094064;28;20651;-71
2023/08/18 00:58:55;;;;;;;0.30;0.30;;;17.70;99.90;;;;;;5094061;28;20613;-71
2023/08/18 01:01:26;;;;;;;0.40;0.40;;;17.70;99.90;;;;;;5094057;28;20551;-71
2023/08/18 01:03:58;;;;;;;0.38;0.30;;;17.50;99.90;;;;;;5093994;28;20199;-71
2023/08/18 01:06:29;;;;;;;0.20;0.20;;;17.40;99.90;;;;;;5094007;28;20195;-70
2023/08/18 01:09:00;;;;;;;0.60;0.25;;;17.40;99.90;;;;;;5093579;28;20307;-71
2023/08/18 01:11:40;;;;;;;0.20;0.20;;;17.50;99.90;;;;;;5093610;28;20595;-73
2023/08/18 01:14:23;;;;;;;0.30;0.30;;;17.80;99.90;;;;;;5094081;28;20195;-72
2023/08/18 01:16:59;;;;;;;1.10;0.30;;;17.90;99.90;;;;;;5093838;28;20257;-72
2023/08/18 01:19:34;;;;;;;0.30;0.30;;;17.70;99.90;;;;;;5092396;28;20607;-72
2023/08/18 01:22:11;;;;;;;0.40;0.20;;;17.90;99.90;;;;;;5074194;28;20580;-72
2023/08/18 01:24:45;;;;;;;0.32;0.22;;;18.00;99.90;;;;;;5073279;28;20276;-72
2023/08/18 01:27:17;;;;;;;0.35;0.30;;;18.20;99.90;;;;;;5074635;28;20746;-72
2023/08/18 01:29:48;;;;;;;0.77;0.20;;;18.40;99.90;;;;;;5087340;28;20208;-72
2023/08/18 01:32:20;;;;;;;0.43;0.40;;;18.40;99.90;;;;;;5073212;28;20199;-72
2023/08/18 01:34:54;;;;;;;1.40;0.70;;;18.20;99.90;;;;;;5083557;28;20188;-72
2023/08/18 01:37:25;;;;;;;0.20;0.20;;;18.10;99.90;;;;;;5083723;28;20227;-71
2023/08/18 01:40:00;;;;;;;2.63;0.50;;;17.90;99.90;;;;;;5089603;28;20835;-71
2023/08/18 01:42:31;;;;;;;1.77;0.65;;;17.70;99.90;;;;;;5073165;28;20284;-71
2023/08/18 01:45:08;;;;;;;0.20;0.20;;;17.60;99.90;;;;;;5072089;28;20204;-71
2023/08/18 01:47:39;;;;;;;0.15;0.15;;;17.60;99.90;;;;;;5072999;28;20228;-71
2023/08/18 01:50:10;;;;;;;0.17;0.17;;;17.80;99.90;;;;;;5073052;28;20227;-72
2023/08/18 01:52:41;;;;;;;0.15;0.10;;;17.90;99.90;;;;;;5072925;28;20203;-72
2023/08/18 01:55:14;;;;;;;0.13;0.10;;;18.10;99.90;;;;;;5089858;28;20200;-72
2023/08/18 01:57:45;;;;;;;0.20;0.20;;;18.40;99.90;;;;;;5093551;28;20536;-72
2023/08/18 02:00:16;;;;;;;0.65;0.30;;;18.60;99.90;;;;;;5093239;28;20195;-72
2023/08/18 02:02:46;;;;;;;0.22;0.20;;;18.70;99.90;;;;;;5079435;28;20184;-72
2023/08/18 02:05:18;;;;;;;0.20;0.20;;;18.90;99.90;;;;;;5092750;28;20280;-72
2023/08/18 02:07:48;;;;;;;0.17;0.15;;;19.00;99.90;;;;;;5077982;28;20279;-72
2023/08/18 02:10:22;;;;;;;1.95;0.30;;;19.00;99.90;;;;;;5085529;28;20338;-72
2023/08/18 02:12:53;;;;;;;0.93;0.22;;;19.00;99.90;;;;;;5074394;28;20291;-72
2023/08/18 02:15:24;;;;;;;0.93;0.20;;;19.00;99.90;;;;;;5083463;28;20283;-72
2023/08/18 02:17:54;;;;;;;0.30;0.20;;;18.90;99.90;;;;;;5079944;28;20191;-72
2023/08/18 02:20:25;;;;;;;0.70;0.20;;;18.60;99.90;;;;;;5086366;28;20550;-72
2023/08/18 02:22:56;;;;;;;0.32;0.20;;;18.40;99.90;;;;;;5085526;28;20228;-72
2023/08/18 02:25:29;;;;;;;0.20;0.10;;;18.30;99.90;;;;;;5092922;28;20626;-71
2023/08/18 02:27:59;;;;;;;0.13;0.13;;;18.10;99.90;;;;;;5093121;28;20188;-73
2023/08/18 02:30:30;;;;;;;12.60;8.48;;;17.90;99.90;;;;;;5086561;28;20227;-72
2023/08/18 02:33:01;;;;;;;13.00;7.50;;;17.80;99.90;;;;;;5074100;28;20189;-72
2023/08/18 02:35:32;;;;;;;3.50;2.20;;;17.90;99.90;;;;;;5092532;28;20192;-72
2023/08/18 02:38:03;;;;;;;1.73;0.93;;;18.10;99.90;;;;;;5090998;28;20272;-73
2023/08/18 02:40:36;;;;;;;1.42;1.00;;;18.40;99.90;;;;;;5092948;28;20644;-73
2023/08/18 02:43:07;;;;;;;2.05;1.50;;;18.50;99.90;;;;;;5090676;28;20193;-80
2023/08/18 02:45:38;;;;;;;0.90;0.60;;;18.70;99.90;;;;;;5073635;28;20707;-73
2023/08/18 02:48:09;;;;;;;0.47;0.47;;;18.90;99.90;;;;;;5072126;28;20268;-72
2023/08/18 02:50:40;;;;;;;0.30;0.30;;;19.00;99.90;;;;;;5089358;28;20405;-73
2023/08/18 02:53:11;;;;;;;0.95;0.20;;;19.10;99.90;;;;;;5093256;28;20647;-71
2023/08/18 02:55:44;;;;;;;0.52;0.22;;;19.10;99.90;;;;;;5084019;28;20634;-72
2023/08/18 02:58:15;;;;;;;0.30;0.30;;;18.90;99.90;;;;;;5094176;28;20195;-72
2023/08/18 03:00:45;;;;;;;0.20;0.20;;;18.50;99.90;;;;;;5091010;28;20282;-72
2023/08/18 03:03:16;;;;;;;0.38;0.28;;;18.30;99.90;;;;;;5092434;28;20610;-73
2023/08/18 03:05:48;;;;;;;0.30;0.30;;;18.20;99.90;;;;;;5095859;28;20280;-72
2023/08/18 03:08:18;;;;;;;0.30;0.30;;;18.20;99.90;;;;;;5080337;28;20648;-72
2023/08/18 03:10:58;;;;;;;1.40;0.28;;;18.20;99.90;;;;;;5084004;28;20315;-72
2023/08/18 03:13:29;;;;;;;1.58;0.43;;;18.30;99.90;;;;;;5096263;28;20192;-71
2023/08/18 03:16:00;;;;;;;0.22;0.22;;;18.50;99.90;;;;;;5084313;28;20557;-72
2023/08/18 03:18:31;;;;;;;0.68;0.40;;;18.60;99.90;;;;;;5090255;28;20230;-72
2023/08/18 03:21:04;;;;;;;1.75;0.35;;;18.50;99.90;;;;;;5096054;28;20197;-72
2023/08/18 03:23:34;;;;;;;1.30;0.60;;;18.20;99.90;;;;;;5093915;28;20180;-72
2023/08/18 03:26:08;;;;;;;1.23;0.28;;;17.90;99.90;;;;;;5081307;28;20628;-70
2023/08/18 03:28:40;;;;;;;1.05;0.30;;;17.90;99.90;;;;;;5090430;28;20231;-72
2023/08/18 03:31:11;;;;;;;2.50;0.32;;;18.00;99.90;;;;;;5095914;28;20192;-72
2023/08/18 03:33:42;;;;;;;0.35;0.35;;;18.10;99.90;;;;;;5089486;28;20204;-72
2023/08/18 03:36:12;;;;;;;0.95;0.63;;;18.20;99.90;;;;;;5086567;28;20201;-71
2023/08/18 03:38:43;;;;;;;0.38;0.38;;;18.20;99.90;;;;;;5084474;28;20192;-72
2023/08/18 03:41:16;;;;;;;0.80;0.68;;;18.30;99.90;;;;;;5077378;28;20211;-72
2023/08/18 03:43:47;;;;;;;2.10;0.60;;;18.40;99.90;;;;;;5082872;28;20667;-72
2023/08/18 03:46:25;;;;;;;2.00;0.50;;;18.40;99.90;;;;;;5076339;28;20193;-73
2023/08/18 03:48:56;;;;;;;1.00;0.28;;;18.30;99.90;;;;;;5076234;28;20193;-72
2023/08/18 03:51:26;;;;;;;1.55;0.50;;;18.30;99.90;;;;;;5092188;28;20200;-73
2023/08/18 03:53:57;;;;;;;1.45;0.30;;;18.40;99.90;;;;;;5081391;28;20254;-72
2023/08/18 03:56:30;;;;;;;0.30;0.30;;;18.40;99.90;;;;;;5090067;28;20199;-73
2023/08/18 03:59:01;;;;;;;2.67;0.50;;;18.50;99.90;;;;;;5076666;28;20188;-72
2023/08/18 04:01:31;;;;;;;0.68;0.30;;;18.40;99.90;;;;;;5072754;28;20197;-72
2023/08/18 04:04:04;;;;;;;1.10;0.40;;;18.30;99.90;;;;;;5075207;28;20678;-72
2023/08/18 04:06:35;;;;;;;0.52;0.30;;;18.20;99.90;;;;;;5076549;28;20734;-72
2023/08/18 04:09:15;;;;;;;5.65;0.30;;;18.20;99.90;;;;;;5077717;28;20192;-72
2023/08/18 04:11:48;;;;;;;2.97;0.63;;;18.20;99.90;;;;;;5088714;28;20223;-72
2023/08/18 04:14:19;;;;;;;0.50;0.30;;;18.20;99.90;;;;;;5095018;28;20199;-74
2023/08/18 04:16:50;;;;;;;1.48;0.50;;;18.10;99.90;;;;;;5092418;28;20192;-72
2023/08/18 04:19:21;;;;;;;0.50;0.43;;;18.10;99.90;;;;;;5093352;28;20287;-71
2023/08/18 04:21:51;;;;;;;1.27;0.40;;;18.00;99.90;;;;;;5075753;28;20307;-72
2023/08/18 04:24:23;;;;;;;1.00;0.30;;;18.10;99.90;;;;;;5087868;28;20200;-71
2023/08/18 04:26:59;;;;;;;0.30;0.20;;;18.10;99.90;;;;;;5079458;28;20201;-72
2023/08/18 04:29:30;;;;;;;1.00;0.20;;;18.10;99.90;;;;;;5074275;28;20274;-72
2023/08/18 04:32:01;;;;;;;0.50;0.30;;;18.10;99.90;;;;;;5077875;28;20194;-72
2023/08/18 04:34:31;;;;;;;0.80;0.30;;;18.00;99.90;;;;;;5087542;28;20200;-72
2023/08/18 04:37:02;;;;;;;1.25;0.60;;;18.00;99.90;;;;;;5089609;28;20288;-71
2023/08/18 04:39:33;;;;;;;0.40;0.25;;;17.90;99.90;;;;;;5087869;28;22078;-71
2023/08/18 04:42:06;;;;;;;0.95;0.30;;;17.80;99.90;;;;;;5083537;28;20200;-71
2023/08/18 04:44:36;;;;;;;0.82;0.32;;;17.90;99.90;;;;;;5090281;28;20204;-72
2023/08/18 04:47:07;;;;;;;0.40;0.32;;;17.90;99.90;;;;;;5075644;28;20576;-73
2023/08/18 04:49:38;;;;;;;1.05;0.38;;;18.00;99.90;;;;;;5086113;28;20295;-71
2023/08/18 04:52:10;;;;;;;0.20;0.20;;;17.90;99.90;;;;;;5081799;28;20618;-71
2023/08/18 04:54:40;;;;;;;0.80;0.32;;;18.00;99.90;;;;;;5087035;28;20195;-71
2023/08/18 04:57:13;;;;;;;1.02;0.60;;;17.90;99.90;;;;;;5093592;28;20188;-71
2023/08/18 04:59:44;;;;;;;3.15;0.50;;;17.80;99.90;;;;;;5073914;28;20272;-74
2023/08/18 05:02:15;;;;;;;3.47;0.35;;;17.80;99.90;;;;;;5080076;28;20690;-72
2023/08/18 05:04:46;;;;;;;1.33;0.30;;;17.70;99.90;;;;;;5083754;28;20226;-72
2023/08/18 05:07:16;;;;;;;3.20;0.40;;;17.80;99.90;;;;;;5073954;28;20204;-73
2023/08/18 05:09:47;;;;;;;0.63;0.25;;;17.80;99.90;;;;;;5090533;28;20686;-75
2023/08/18 05:12:21;;;;;;;1.70;0.38;;;17.70;99.90;;;;;;5093597;28;20244;-73
2023/08/18 05:14:52;;;;;;;0.60;0.28;;;17.70;99.90;;;;;;5084457;28;20224;-72
2023/08/18 05:17:23;;;;;;;0.32;0.30;;;17.60;99.90;;;;;;5074829;28;20272;-71
2023/08/18 05:19:54;;;;;;;2.88;0.30;;;17.60;99.90;;;;;;5078152;28;20660;-71
2023/08/18 05:22:24;;;;;;;1.95;0.38;;;17.60;99.90;;;;;;5086209;28;20279;-71
2023/08/18 05:24:56;;;;;;;0.20;0.20;;;17.50;99.90;;;;;;5084628;28;20189;-71
2023/08/18 05:27:29;;;;;;;0.70;0.30;;;17.50;99.90;;;;;;5073639;28;20315;-72
2023/08/18 05:30:00;;;;;;;0.95;0.30;;;17.50;99.90;;;;;;5085523;28;20247;-72
2023/08/18 05:32:31;;;;;;;0.57;0.25;;;17.50;99.90;;;;;;5074313;28;20204;-72
2023/08/18 05:35:03;;;;;;;0.55;0.30;;;17.60;99.90;;;;;;5081947;28;20209;-73
2023/08/18 05:37:34;;;;;;;0.30;0.20;;;17.60;99.90;;;;;;5079651;28;21110;-71
2023/08/18 05:40:05;;;;;;;0.40;0.20;;;17.60;99.90;;;;;;5080824;28;20283;-70
2023/08/18 05:42:37;;;;;;;2.78;0.40;;;17.50;99.90;;;;;;5083248;28;20235;-71
2023/08/18 05:45:09;;;;;;;0.32;0.30;;;17.50;99.90;;;;;;5082313;28;20189;-71
2023/08/18 05:47:40;;;;;;;0.63;0.40;;;17.50;99.90;;;;;;5080642;28;20692;-71
2023/08/18 05:50:13;;;;;;;1.15;0.43;;;17.50;99.90;;;;;;5091473;28;20220;-71
2023/08/18 05:52:44;;;;;;;1.48;0.30;;;17.50;99.90;;;;;;5090226;28;20192;-72
2023/08/18 05:55:15;;;;;;;1.98;0.30;;;17.50;99.90;;;;;;5086152;28;20221;-71
2023/08/18 05:57:47;;;;;;;0.50;0.28;;;17.50;99.90;;;;;;5072747;28;20191;-71
2023/08/18 06:00:19;;;;;;;1.35;0.30;;;17.40;99.90;;;;;;5073194;28;20185;-72
2023/08/18 06:02:49;;;;;;;2.03;1.15;;;17.40;99.90;;;;;;5076743;28;20565;-72
2023/08/18 06:05:20;;;;;;;0.93;0.47;;;17.40;99.90;;;;;;5091426;28;20278;-72
2023/08/18 06:07:51;;;;;;;0.47;0.30;;;17.30;99.90;;;;;;5086246;28;20242;-72
2023/08/18 06:10:22;;;;;;;0.75;0.40;;;17.30;99.90;;;;;;5084933;28;20319;-72
2023/08/18 06:12:55;;;;;;;2.47;0.30;;;17.30;99.90;;;;;;5083438;28;20284;-72
2023/08/18 06:15:27;;;;;;;0.80;0.20;;;17.20;99.90;;;;;;5072828;28;20272;-72
2023/08/18 06:17:57;;;;;;;0.82;0.30;;;17.20;99.90;;;;;;5074846;28;20649;-72
2023/08/18 06:20:28;;;;;;;0.20;0.20;;;17.10;99.90;;;;;;5074455;28;20288;-72
2023/08/18 06:22:59;;;;;;;0.85;0.30;;;17.10;99.90;;;;;;5072875;28;20291;-71
2023/08/18 06:25:30;;;;;;;0.28;0.20;;;17.10;99.90;;;;;;5084020;28;20203;-71
2023/08/18 06:28:02;;;;;;;1.00;0.20;;;17.00;99.90;;;;;;5091916;28;20200;-72
2023/08/18 06:30:33;;;;;;;2.47;1.80;;;17.00;99.90;;;;;;5081086;28;20304;-71
2023/08/18 06:33:04;;;;;;;2.63;1.52;;;16.90;99.90;;;;;;5089334;28;20628;-71
2023/08/18 06:35:35;;;;;;;2.72;0.40;;;16.90;99.90;;;;;;5089008;28;20276;-71
2023/08/18 06:38:06;;;;;;;0.52;0.40;;;16.80;99.90;;;;;;5095596;28;20664;-72
2023/08/18 06:40:37;;;;;;;1.30;0.30;;;16.80;99.90;;;;;;5096816;28;20640;-71
2023/08/18 06:43:10;;;;;;;0.93;0.30;;;16.70;99.90;;;;;;5087696;28;20211;-71
2023/08/18 06:45:40;;;;;;;0.80;0.30;;;16.60;99.90;;;;;;5088016;28;20283;-71
2023/08/18 06:48:11;;;;;;;0.50;0.20;;;16.60;99.90;;;;;;5080720;28;20280;-71
2023/08/18 06:50:42;;;;;;;0.47;0.30;;;16.50;99.90;;;;;;5074214;28;20212;-72
2023/08/18 06:53:13;;;;;;;0.70;0.38;;;16.50;99.90;;;;;;5081608;28;20600;-72
2023/08/18 06:55:44;;;;;;;1.65;0.40;;;16.40;99.90;;;;;;5087427;28;20279;-71
2023/08/18 06:58:16;;;;;;;0.30;0.30;;;16.30;99.90;;;;;;5087571;28;20222;-71
2023/08/18 07:00:47;;;;;;;0.30;0.30;;;16.30;99.90;;;;;;5086085;28;20283;-71
2023/08/18 07:03:18;;;;;;;2.58;0.47;;;16.20;99.90;;;;;;5079810;28;20196;-71
2023/08/18 07:05:50;;;;;;;0.52;0.40;;;16.20;99.90;;;;;;5080839;28;20580;-72
2023/08/18 07:08:21;;;;;;;0.32;0.22;;;16.10;99.90;;;;;;5082482;28;20637;-71
2023/08/18 07:10:51;;;;;;;0.93;0.40;;;16.10;99.90;;;;;;5080640;28;20720;-71
2023/08/18 07:13:24;;;;;;;0.57;0.40;;;16.00;99.90;;;;;;5075990;28;20296;-71
2023/08/18 07:15:55;;;;;;;0.40;0.30;;;15.90;99.90;;;;;;5078113;28;20283;-71
2023/08/18 07:18:26;;;;;;;0.60;0.40;;;15.90;99.90;;;;;;5075658;28;20547;-72
2023/08/18 07:20:58;;;;;;;0.80;0.40;;;15.80;99.90;;;;;;5082065;28;20281;-72
2023/08/18 07:23:29;;;;;;;0.50;0.32;;;15.70;99.90;;;;;;5078299;28;20676;-71
2023/08/18 07:26:00;;;;;;;0.55;0.30;;;15.60;99.90;;;;;;5094749;28;20261;-71
2023/08/18 07:28:33;;;;;;;0.52;0.32;;;15.50;99.90;;;;;;5077090;28;20621;-72
2023/08/18 07:31:07;;;;;;;0.57;0.50;;;15.50;99.90;;;;;;5086683;28;20219;-72
2023/08/18 07:33:38;;;;;;;0.50;0.40;;;15.40;99.90;;;;;;5090306;28;20219;-71
2023/08/18 07:36:09;;;;;;;0.60;0.52;;;15.40;99.90;;;;;;5086041;28;20564;-71
2023/08/18 07:38:40;;;;;;;0.70;0.50;;;15.30;99.90;;;;;;5077834;28;20656;-71
2023/08/18 07:41:11;;;;;;;0.55;0.55;;;15.20;99.90;;;;;;5095450;28;20192;-72
2023/08/18 07:43:44;;;;;;;1.67;0.50;;;15.20;99.90;;;;;;5088295;28;20254;-71
2023/08/18 07:46:14;;;;;;;1.42;0.60;;;15.10;99.90;;;;;;5084537;28;20304;-71
2023/08/18 07:48:45;;;;;;;1.20;0.52;;;15.00;99.90;;;;;;5093242;28;20275;-72
2023/08/18 07:51:16;;;;;;;0.50;0.50;;;15.00;99.90;;;;;;5083860;28;20694;-72
2023/08/18 07:53:48;;;;;;;0.70;0.50;;;14.90;99.90;;;;;;5083644;28;20271;-71
2023/08/18 07:56:18;;;;;;;0.88;0.50;;;14.80;99.90;;;;;;5079631;28;20280;-71
2023/08/18 07:58:51;;;;;;;1.67;0.60;;;14.80;99.90;;;;;;5083452;28;20277;-70
2023/08/18 08:01:22;;;;;;;2.00;0.70;;;14.70;99.90;;;;;;5081509;28;20243;-71
2023/08/18 08:03:53;;;;;;;0.50;0.47;;;14.70;99.90;;;;;;5094973;28;20216;-71
2023/08/18 08:06:25;;;;;;;1.05;0.70;;;14.60;99.90;;;;;;5095492;28;20204;-72
2023/08/18 08:08:56;;;;;;;0.95;0.55;;;14.60;99.90;;;;;;5094044;28;20212;-71
2023/08/18 08:11:27;;;;;;;2.25;0.75;;;14.50;99.90;;;;;;5083419;28;20245;-71
2023/08/18 08:14:00;;;;;;;0.85;0.70;;;14.50;99.90;;;;;;5074632;28;20224;-71
2023/08/18 08:16:35;;;;;;;0.85;0.60;;;14.50;99.90;;;;;;5078743;28;20538;-72
2023/08/18 08:19:06;;;;;;;0.80;0.60;;;14.40;99.90;;;;;;5088947;28;20188;-71
2023/08/18 08:21:38;;;;;;;0.93;0.70;;;14.40;99.90;;;;;;5085723;28;20261;-72
2023/08/18 08:24:09;;;;;;;2.45;0.90;;;14.30;99.90;;;;;;5091044;28;20196;-72
2023/08/18 08:26:40;;;;;;;1.15;0.70;;;14.30;99.90;;;;;;5090201;28;20271;-72
2023/08/18 08:29:13;;;;;;;1.15;1.00;;;14.20;99.90;;;;;;5081770;28;20258;-72
2023/08/18 08:31:47;;;;;;;1.95;0.90;;;14.10;99.90;;;;;;5092398;28;20306;-72
2023/08/18 08:34:18;;;;;;;1.60;1.17;;;14.10;99.90;;;;;;5086798;28;20206;-72
2023/08/18 08:36:49;;;;;;;1.52;1.00;;;14.10;99.90;;;;;;5081113;28;20622;-72
2023/08/18 08:39:20;;;;;;;4.20;1.13;;;14.00;99.90;;;;;;5074866;28;20231;-71
2023/08/18 08:41:51;;;;;;;1.23;0.98;;;14.00;99.90;;;;;;5074537;28;20250;-72
2023/08/18 08:44:23;;;;;;;1.67;1.10;;;13.90;99.90;;;;;;5078008;28;20733;-72
2023/08/18 08:46:55;;;;;;;1.67;1.00;;;13.90;99.90;;;;;;5074097;28;20193;-72
2023/08/18 08:49:29;;;;;;;1.92;1.10;;;13.90;99.90;;;;;;5078295;28;20192;-72
2023/08/18 08:52:04;;;;;;;1.85;1.00;;;13.90;99.90;;;;;;5075822;28;20230;-72
2023/08/18 08:54:41;;;;;;;2.97;0.90;;;13.80;99.90;;;;;;5089437;28;20222;-72
2023/08/18 08:57:16;;;;;;;2.33;1.00;;;13.80;99.90;;;;;;5074491;28;20200;-71
2023/08/18 08:59:49;;;;;;;1.08;0.77;;;13.80;99.90;;;;;;5083178;28;20196;-72
2023/08/18 09:02:20;;;;;;;1.42;0.88;;;13.70;99.90;;;;;;5074725;28;20211;-70
2023/08/18 09:04:50;;;;;;;1.00;0.50;;;13.70;99.90;;;;;;5088587;28;20597;-71
2023/08/18 09:07:22;;;;;;;0.63;0.50;;;13.70;99.90;;;;;;5077182;28;20239;-72
2023/08/18 09:09:53;;;;;;;0.60;0.57;;;13.70;99.90;;;;;;5082912;28;20227;-72
2023/08/18 09:12:30;;;;;;;0.93;0.55;;;13.70;99.90;;;;;;5057878;28;20212;-70
2023/08/18 09:15:03;;;;;;;0.82;0.55;;;13.70;99.90;;;;;;5087270;28;20199;-72
2023/08/18 09:17:34;;;;;;;0.82;0.60;;;13.70;99.90;;;;;;5093541;28;20228;-72
2023/08/18 09:20:06;;;;;;;1.05;0.47;;;13.60;99.90;;;;;;5092989;28;20239;-71
2023/08/18 09:22:36;;;;;;;0.80;0.30;;;13.60;99.90;;;;;;5093798;28;20277;-71
2023/08/18 09:25:09;;;;;;;1.15;0.40;;;13.60;99.90;;;;;;5093667;28;20188;-71
2023/08/18 09:27:41;;;;;;;0.70;0.45;;;13.60;99.90;;;;;;5091507;28;20203;-71
2023/08/18 09:30:14;;;;;;;0.60;0.60;;;13.60;99.90;;;;;;5084721;28;20239;-71
2023/08/18 09:32:47;;;;;;;1.50;0.70;;;13.60;99.90;;;;;;5093472;28;20216;-72
2023/08/18 09:35:21;;;;;;;1.27;0.90;;;13.50;99.90;;;;;;5093314;28;20278;-71
2023/08/18 09:37:58;;;;;;;0.90;0.60;;;13.40;99.90;;;;;;5093486;28;20195;-71
2023/08/18 09:40:29;;;;;;;1.95;0.77;;;13.40;99.90;;;;;;5093369;28;20192;-71
2023/08/18 09:43:00;;;;;;;0.93;0.70;;;13.40;99.90;;;;;;5093469;28;20196;-71
2023/08/18 09:45:40;;;;;;;1.00;0.57;;;13.40;99.90;;;;;;5093312;28;20226;-71
2023/08/18 09:48:15;;;;;;;0.65;0.60;;;13.40;99.90;;;;;;5093153;28;20188;-71
2023/08/18 09:50:51;;;;;;;0.73;0.63;;;13.30;99.90;;;;;;5090922;28;20234;-71
2023/08/18 09:53:27;;;;;;;0.63;0.50;;;13.30;99.90;;;;;;5073124;28;20204;-71
2023/08/18 09:56:05;;;;;;;1.05;0.43;;;13.30;99.90;;;;;;5073128;28;20643;-73
2023/08/18 09:58:43;;;;;;;0.57;0.50;;;13.30;99.90;;;;;;5073103;28;20247;-72
2023/08/18 10:01:18;;;;;;;0.57;0.45;;;13.30;99.90;;;;;;5072870;28;20232;-71
2023/08/18 10:03:50;;;;;;;1.48;0.50;;;13.20;99.90;;;;;;5072821;28;20275;-71
2023/08/18 10:06:24;;;;;;;0.57;0.50;;;13.20;99.90;;;;;;5055396;28;20251;-71
2023/08/18 10:08:57;;;;;;;0.50;0.50;;;13.10;99.90;;;;;;5073058;28;20283;-72
2023/08/18 10:11:28;;;;;;;0.70;0.60;;;13.10;99.90;;;;;;5081373;28;20721;-71
2023/08/18 10:13:59;;;;;;;0.40;0.40;;;13.10;99.90;;;;;;5074913;28;20292;-72
2023/08/18 10:16:33;;;;;;;1.25;0.65;;;13.10;99.90;;;;;;5073257;28;20193;-72
2023/08/18 10:19:04;;;;;;;0.52;0.50;;;13.10;99.90;;;;;;5072583;28;20276;-71
2023/08/18 10:21:35;;;;;;;0.77;0.70;;;13.00;99.90;;;;;;5072738;28;20614;-72
2023/08/18 10:24:07;;;;;;;1.15;0.70;;;13.00;99.90;;;;;;5072764;28;20284;-72
2023/08/18 10:26:42;;;;;;;1.38;0.50;;;12.90;99.90;;;;;;5072823;28;20276;-72
2023/08/18 10:29:19;;;;;;;1.45;0.70;;;12.90;99.90;;;;;;5088082;28;20227;-72
2023/08/18 10:31:58;;;;;;;0.95;0.70;;;12.90;99.90;;;;;;5093075;28;20556;-72
2023/08/18 10:34:29;;;;;;;0.75;0.63;;;12.90;99.90;;;;;;5092836;28;20195;-71
2023/08/18 10:37:07;;;;;;;1.13;0.70;;;12.90;99.90;;;;;;5075187;28;20200;-71
2023/08/18 10:39:44;;;;;;;2.50;0.80;;;12.80;99.90;;;;;;5092947;28;20271;-71
2023/08/18 10:42:17;;;;;;;0.90;0.63;;;12.80;99.90;;;;;;5092799;28;20188;-72
2023/08/18 10:45:06;;;;;;;0.60;0.60;;;12.80;99.90;;;;;;5092845;28;20224;-72
2023/08/18 10:47:44;;;;;;;0.60;0.52;;;12.80;99.90;;;;;;5088378;28;20184;-72
2023/08/18 10:50:15;;;;;;;0.57;0.45;;;12.70;99.90;;;;;;5072476;28;20299;-72
2023/08/18 10:52:46;;;;;;;0.90;0.68;;;12.80;99.90;;;;;;5072516;28;20224;-71
2023/08/18 10:55:17;;;;;;;0.40;0.40;;;12.70;99.90;;;;;;5072490;28;20227;-72
2023/08/18 10:57:48;;;;;;;1.58;0.68;;;12.70;99.90;;;;;;5072506;28;20198;-72
2023/08/18 11:00:20;;;;;;;0.80;0.60;;;12.70;99.90;;;;;;5072389;28;20199;-71
2023/08/18 11:02:53;;;;;;;0.80;0.70;;;12.70;99.90;;;;;;5072313;28;20189;-72
2023/08/18 11:05:27;;;;;;;0.80;0.60;;;12.70;99.90;;;;;;5081830;28;20192;-71
2023/08/18 11:07:59;;;;;;;0.63;0.60;;;12.70;99.90;;;;;;5092565;28;20234;-72
2023/08/18 11:10:30;;;;;;;0.60;0.60;;;12.60;99.90;;;;;;5092428;28;20232;-72
2023/08/18 11:13:03;;;;;;;1.08;0.63;;;12.60;99.90;;;;;;5093060;28;20688;-71
2023/08/18 11:15:34;;;;;;;1.75;0.60;;;12.60;99.90;;;;;;5096269;28;20643;-71
2023/08/18 11:18:07;;;;;;;1.35;0.70;;;12.60;99.90;;;;;;5096105;28;20195;-72
2023/08/18 11:20:40;;;;;;;1.23;0.50;;;12.60;99.90;;;;;;5096182;28;20206;-71
2023/08/18 11:23:11;;;;;;;0.65;0.50;;;12.50;99.90;;;;;;5096326;28;20287;-72
2023/08/18 11:25:42;;;;;;;0.40;0.40;;;12.60;99.90;;;;;;5096045;28;20656;-72
2023/08/18 11:28:14;;;;;;;0.77;0.50;;;12.70;99.90;;;;;;5095982;28;20192;-71
2023/08/18 11:30:46;;;;;;;0.77;0.50;;;12.60;99.90;;;;;;5092837;28;20246;-71
2023/08/18 11:33:19;;;;;;;0.52;0.43;;;12.60;99.90;;;;;;5095535;28;20616;-72
2023/08/18 11:35:51;;;;;;;0.40;0.40;;;12.60;99.90;;;;;;5095856;28;20238;-71
2023/08/18 11:38:23;;;;;;;0.50;0.35;;;12.60;99.90;;;;;;5095768;28;20199;-72
2023/08/18 11:40:55;;;;;;;2.00;0.47;;;12.60;99.90;;;;;;5096000;28;20290;-71
2023/08/18 11:43:26;;;;;;;1.02;0.50;;;12.60;99.90;;;;;;5095541;28;20206;-71
2023/08/18 11:45:57;;;;;;;1.33;0.65;;;12.50;99.90;;;;;;5095551;28;20202;-72
2023/08/18 11:48:31;;;;;;;3.20;0.60;;;12.60;99.90;;;;;;5095556;28;20229;-71
2023/08/18 11:51:02;;;;;;;0.60;0.30;;;12.50;99.90;;;;;;5095631;28;20220;-71
2023/08/18 11:53:35;;;;;;;1.38;0.60;;;12.60;99.90;;;;;;5077259;28;20277;-71
2023/08/18 11:56:05;;;;;;;1.02;0.40;;;12.60;99.90;;;;;;5095411;28;20192;-72
2023/08/18 11:58:40;;;;;;;1.67;0.65;;;12.60;99.90;;;;;;5095266;28;20192;-71
2023/08/18 12:01:12;;;;;;;1.60;0.50;;;12.60;99.90;;;;;;5095165;28;20194;-71
2023/08/18 12:03:44;;;;;;;0.95;0.50;;;12.50;99.90;;;;;;5095241;28;20219;-71
2023/08/18 12:06:26;;;;;;;1.70;0.65;;;12.50;99.90;;;;;;5095190;28;20188;-70
2023/08/18 12:08:58;;;;;;;1.85;0.57;;;12.50;99.90;;;;;;5095202;28;20195;-73
2023/08/18 12:11:29;;;;;;;1.58;0.60;;;12.50;99.90;;;;;;5094836;28;20224;-71
2023/08/18 12:14:00;;;;;;;1.13;0.40;;;12.50;99.90;;;;;;5095126;28;20200;-71
2023/08/18 12:16:30;;;;;;;2.28;0.60;;;12.50;99.90;;;;;;5093766;28;23261;-71
2023/08/18 12:19:04;;;;;;;1.95;0.65;;;12.50;99.90;;;;;;5087684;28;20225;-71
2023/08/18 12:21:36;;;;;;;2.05;0.50;;;12.40;99.90;;;;;;5074636;28;20212;-71
2023/08/18 12:24:09;;;;;;;0.80;0.52;;;12.40;99.90;;;;;;5074122;28;20644;-70
2023/08/18 12:26:40;;;;;;;0.77;0.40;;;12.40;99.90;;;;;;5078233;28;20246;-71
2023/08/18 12:29:11;;;;;;;2.55;0.63;;;12.40;99.90;;;;;;5089288;28;20682;-72
2023/08/18 12:31:42;;;;;;;0.60;0.57;;;12.30;99.90;;;;;;5087239;28;20279;-71
2023/08/18 12:34:15;;;;;;;0.52;0.43;;;12.30;99.90;;;;;;5076304;28;20201;-72
2023/08/18 12:36:47;;;;;;;1.48;0.50;;;12.30;99.90;;;;;;5081858;28;20711;-72
2023/08/18 12:39:20;;;;;;;2.92;0.63;;;12.30;99.90;;;;;;5083987;28;20231;-72
2023/08/18 12:41:50;;;;;;;1.65;0.50;;;12.20;99.90;;;;;;5079720;28;20282;-72
2023/08/18 12:44:22;;;;;;;1.02;0.55;;;12.20;99.90;;;;;;5074039;28;20223;-72
2023/08/18 12:46:53;;;;;;;0.77;0.50;;;12.20;99.90;;;;;;5079756;28;20624;-72
2023/08/18 12:49:27;;;;;;;1.38;0.55;;;12.20;99.90;;;;;;5079836;28;20223;-72
2023/08/18 12:51:58;;;;;;;0.93;0.57;;;12.20;99.90;;;;;;5082240;28;20181;-71
2023/08/18 12:54:31;;;;;;;1.05;0.50;;;12.20;99.90;;;;;;5083668;28;20200;-71
2023/08/18 12:57:02;;;;;;;2.05;0.70;;;12.20;99.90;;;;;;5080258;28;20189;-72
2023/08/18 12:59:33;;;;;;;0.95;0.40;;;12.20;99.90;;;;;;5090677;28;20294;-72
2023/08/18 13:02:04;;;;;;;0.52;0.40;;;12.20;99.90;;;;;;5075482;28;20291;-72
2023/08/18 13:04:37;;;;;;;1.38;0.43;;;12.20;99.90;;;;;;5085484;28;20192;-72
2023/08/18 13:07:08;;;;;;;0.70;0.50;;;12.20;99.90;;;;;;5075796;28;20228;-72
2023/08/18 13:09:39;;;;;;;0.77;0.50;;;12.20;99.90;;;;;;5076208;28;20216;-72